Superfast Levante — 5BCB4 — position and weather

sailwx.info

Track history (hours):
 
Tides and Currents Weather Stations Pressure Air Temp Water Temp Dewpoint Dewpoint Depression Visibility Wind Speed Wind Dir Waves Ship Positions

Superfast Levante

Last reported at 2017-Nov-18 15:25 UTC. Time now 2017-Nov-20 21:21 UTC.
Position N 39°25' E 002°20'.

Length 158 m; draft 5.6 m.

Type: Ship. MMSI: 212324000.

Date/timePositionNaut miles runAvg speedWind from/ knotsBaromVisibWave heightAir tempDewpointWater temp
2017-Nov-18 15:25N 39°25' E 002°20'4 8.5
2017-Nov-18 15:00N 39°25' E 002°24'5 9.9
2017-Nov-18 14:30N 39°25' E 002°31'5 9.0
2017-Nov-18 14:00N 39°28' E 002°35'5 9.1
2017-Nov-18 13:30N 39°32' E 002°39'2 3.6
2017-Nov-18 12:59N 39°34' E 002°38'0 0.0
2017-Nov-18 12:29N 39°34' E 002°38'0 0.0
2017-Nov-18 11:59N 39°34' E 002°38'0 0.0
2017-Nov-18 11:29N 39°34' E 002°38'0 0.0
2017-Nov-18 11:00N 39°34' E 002°38'0 0.0
2017-Nov-18 10:30N 39°34' E 002°38'0 0.0
2017-Nov-18 10:00N 39°34' E 002°38'0 0.0
2017-Nov-18 09:30N 39°34' E 002°38'0 0.0
2017-Nov-18 09:00N 39°34' E 002°38'0 0.0
2017-Nov-18 08:30N 39°34' E 002°38'0 0.0
2017-Nov-18 08:00N 39°34' E 002°38'0 0.0
2017-Nov-18 07:30N 39°34' E 002°38'0 0.0
2017-Nov-18 07:00N 39°34' E 002°38'0 0.0
2017-Nov-18 06:30N 39°34' E 002°38'1 1.8
2017-Nov-18 06:00N 39°33' E 002°39'612.6
2017-Nov-18 05:30N 39°28' E 002°34'712.6
2017-Nov-18 04:59N 39°25' E 002°26'  
2017-Nov-15 19:57N 39°21' E 002°27'715.3
2017-Nov-15 19:30N 39°26' E 002°32'714.1
2017-Nov-15 19:00N 39°32' E 002°38'2 3.2
2017-Nov-15 18:28N 39°34' E 002°38'0 0.0
2017-Nov-15 17:58N 39°34' E 002°38'0 0.0
2017-Nov-15 17:28N 39°34' E 002°38'0 0.0
2017-Nov-15 16:58N 39°34' E 002°38'0 0.0
2017-Nov-15 16:28N 39°34' E 002°38'0 0.0
2017-Nov-15 15:58N 39°34' E 002°38'0 0.0
2017-Nov-15 15:31N 39°34' E 002°38'0 0.0
2017-Nov-15 15:00N 39°34' E 002°38'0 0.0
2017-Nov-15 14:30N 39°34' E 002°38'0 0.0
2017-Nov-15 14:01N 39°34' E 002°38'0 0.0
2017-Nov-15 13:30N 39°34' E 002°38'0 0.0
2017-Nov-15 13:00N 39°34' E 002°38'0 0.0
2017-Nov-15 12:30N 39°34' E 002°38'0 0.0
2017-Nov-15 12:00N 39°34' E 002°38'0 0.0
2017-Nov-15 11:30N 39°34' E 002°38'0 0.0
2017-Nov-15 11:01N 39°34' E 002°38'0 0.0
2017-Nov-15 10:30N 39°34' E 002°38'0 0.0
2017-Nov-15 10:00N 39°34' E 002°38'0 0.0
2017-Nov-15 09:31N 39°34' E 002°38'0 0.0
2017-Nov-15 09:00N 39°34' E 002°38'0 0.0
2017-Nov-15 08:30N 39°34' E 002°38'0 0.0
2017-Nov-15 08:01N 39°34' E 002°38'0 0.0
2017-Nov-15 07:31N 39°34' E 002°38'0 0.0
2017-Nov-15 07:00N 39°34' E 002°38'0 0.0
2017-Nov-15 06:31N 39°34' E 002°38'2 3.1
2017-Nov-15 06:00N 39°32' E 002°38'5 9.6
2017-Nov-15 05:30N 39°28' E 002°35'4 8.7
2017-Nov-15 05:00N 39°25' E 002°31'611.2
2017-Nov-15 04:30N 39°25' E 002°24'15 0.3
2017-Nov-13 01:58N 39°33' E 002°40'0 0.0
2017-Nov-13 01:28N 39°33' E 002°40'0 0.0
2017-Nov-13 00:58N 39°33' E 002°40'0 0.0
2017-Nov-13 00:28N 39°33' E 002°40'0 0.0
2017-Nov-12 23:58N 39°33' E 002°40'0 0.0
2017-Nov-12 23:22N 39°33' E 002°40'0 0.0
2017-Nov-12 22:58N 39°33' E 002°40'0 0.0
2017-Nov-12 22:28N 39°33' E 002°40'0 0.0
2017-Nov-12 21:55N 39°33' E 002°40'0 0.0
2017-Nov-12 21:25N 39°33' E 002°40'0 0.0
2017-Nov-12 20:58N 39°33' E 002°40'0 0.0
2017-Nov-12 20:28N 39°33' E 002°40'0 0.0
2017-Nov-12 19:58N 39°33' E 002°40'0 0.0
2017-Nov-12 19:28N 39°33' E 002°40'0 0.0
2017-Nov-12 18:58N 39°33' E 002°40'0 0.0
2017-Nov-12 18:28N 39°33' E 002°40'0 0.0
2017-Nov-12 17:58N 39°33' E 002°40'0 0.0
2017-Nov-12 17:28N 39°33' E 002°40'0 0.0
2017-Nov-12 16:58N 39°33' E 002°40'0 0.0
2017-Nov-12 16:28N 39°33' E 002°40'0 0.0
2017-Nov-12 15:58N 39°33' E 002°40'0 0.0
2017-Nov-12 15:28N 39°33' E 002°40'0 0.0
2017-Nov-12 14:58N 39°33' E 002°40'0 0.0
2017-Nov-12 14:29N 39°33' E 002°40'0 0.0
2017-Nov-12 13:58N 39°33' E 002°40'0 0.0
2017-Nov-12 13:28N 39°33' E 002°40'0 0.1
2017-Nov-12 12:58N 39°33' E 002°40'0 0.0
2017-Nov-12 12:28N 39°33' E 002°40'0 0.0
2017-Nov-12 11:58N 39°33' E 002°40'0 0.0
2017-Nov-12 11:28N 39°33' E 002°40'0 0.0
2017-Nov-12 10:58N 39°33' E 002°40'0 0.0
2017-Nov-12 10:28N 39°33' E 002°40'0 0.0
2017-Nov-12 09:58N 39°33' E 002°40'0 0.0
2017-Nov-12 09:28N 39°33' E 002°40'0 0.0
2017-Nov-12 08:58N 39°33' E 002°40'0 0.1
2017-Nov-12 08:28N 39°33' E 002°40'0 0.0
2017-Nov-12 07:58N 39°33' E 002°40'0 0.0
2017-Nov-12 07:28N 39°33' E 002°40'0 0.0
2017-Nov-12 06:58N 39°33' E 002°40'0 0.0
2017-Nov-12 06:28N 39°33' E 002°40'0 0.0
2017-Nov-12 05:58N 39°33' E 002°40'0 0.0
2017-Nov-12 05:28N 39°33' E 002°40'0 0.0
2017-Nov-12 04:58N 39°33' E 002°40'0 0.0
2017-Nov-12 04:28N 39°33' E 002°40'0 0.0
2017-Nov-12 03:58N 39°33' E 002°40'0 0.0
2017-Nov-12 03:28N 39°33' E 002°40'0 0.0
2017-Nov-12 02:58N 39°33' E 002°40'0 0.0
2017-Nov-12 02:28N 39°33' E 002°40'0 0.0
2017-Nov-12 01:58N 39°33' E 002°40'0 0.0
2017-Nov-12 01:28N 39°33' E 002°40'0 0.0
2017-Nov-12 00:58N 39°33' E 002°40'0 0.0
2017-Nov-12 00:28N 39°33' E 002°40'0 0.0
2017-Nov-11 23:58N 39°33' E 002°40'0 0.0
2017-Nov-11 23:28N 39°33' E 002°40'0 0.0
2017-Nov-11 22:55N 39°33' E 002°40'0 1.0
2017-Nov-11 22:30N 39°33' E 002°40'611.3
2017-Nov-11 22:00N 39°29' E 002°35'612.5
2017-Nov-11 21:30N 39°27' E 002°27'2 0.1
2017-Nov-10 20:03N 39°28' E 002°24'111.8
2017-Nov-10 19:59N 39°28' E 002°25'511.4
2017-Nov-10 19:30N 39°26' E 002°32'612.7
2017-Nov-10 19:00N 39°31' E 002°37'3 4.9
2017-Nov-10 18:29N 39°34' E 002°38'0 0.0
2017-Nov-10 17:59N 39°34' E 002°38'0 0.0
2017-Nov-10 17:29N 39°34' E 002°38'0 0.0
2017-Nov-10 16:59N 39°34' E 002°38'0 0.0
2017-Nov-10 16:29N 39°34' E 002°38'0 0.0
2017-Nov-10 15:59N 39°34' E 002°38'0 0.0
2017-Nov-10 15:29N 39°34' E 002°38'0 0.0
2017-Nov-10 14:59N 39°34' E 002°38'0 0.0
2017-Nov-10 14:29N 39°34' E 002°38'0 0.0
2017-Nov-10 13:59N 39°34' E 002°38'0 0.0
2017-Nov-10 13:29N 39°34' E 002°38'0 0.0
2017-Nov-10 12:59N 39°34' E 002°38'0 0.0
2017-Nov-10 12:29N 39°34' E 002°38'0 0.0
2017-Nov-10 11:59N 39°34' E 002°38'0 0.0
2017-Nov-10 11:29N 39°34' E 002°38'0 0.0
2017-Nov-10 10:59N 39°34' E 002°38'0 0.0
2017-Nov-10 10:23N 39°34' E 002°38'0 0.0
2017-Nov-10 09:59N 39°34' E 002°38'0 0.0
2017-Nov-10 09:29N 39°34' E 002°38'0 0.0
2017-Nov-10 08:59N 39°34' E 002°38'0 0.0
2017-Nov-10 08:29N 39°34' E 002°38'0 0.0
2017-Nov-10 07:59N 39°34' E 002°38'0 0.0
2017-Nov-10 07:29N 39°34' E 002°38'0 0.0
2017-Nov-10 07:00N 39°34' E 002°38'0 0.0
2017-Nov-10 06:31N 39°34' E 002°38'1 2.9
2017-Nov-10 06:00N 39°32' E 002°39'714.4
2017-Nov-10 05:30N 39°26' E 002°33'612.5
2017-Nov-10 05:00N 39°26' E 002°25'1 0.0
2017-Nov-08 20:23N 39°25' E 002°23'410.4
2017-Nov-08 20:00N 39°25' E 002°28'612.3
2017-Nov-08 19:30N 39°28' E 002°35'611.2
2017-Nov-08 19:00N 39°33' E 002°39'1 1.7
2017-Nov-08 18:28N 39°34' E 002°38'0 0.0
2017-Nov-08 17:58N 39°34' E 002°38'0 0.0
2017-Nov-08 17:28N 39°34' E 002°38'0 0.0
2017-Nov-08 16:58N 39°34' E 002°38'0 0.0
2017-Nov-08 16:28N 39°34' E 002°38'0 0.0
2017-Nov-08 15:55N 39°34' E 002°38'0 0.0
2017-Nov-08 15:25N 39°34' E 002°38'  
Track history (hours):
 
Tides and Currents Weather Stations Pressure Air Temp Water Temp Dewpoint Dewpoint Depression Visibility Wind Speed Wind Dir Waves Ship Positions

Superfast Levante

Last reported at 2017-Nov-18 15:25 UTC. Time now 2017-Nov-20 21:21 UTC.
Position N 39°25' E 002°20'.

Length 158 m; draft 5.6 m.

Type: Ship. MMSI: 212324000.

Date/timePositionNaut miles runAvg speedWind from/ knotsBaromVisibWave heightAir tempDewpointWater temp
2017-Nov-18 15:25N 39°25' E 002°20'4 8.5
2017-Nov-18 15:00N 39°25' E 002°24'5 9.9
2017-Nov-18 14:30N 39°25' E 002°31'5 9.0
2017-Nov-18 14:00N 39°28' E 002°35'5 9.1
2017-Nov-18 13:30N 39°32' E 002°39'2 3.6
2017-Nov-18 12:59N 39°34' E 002°38'0 0.0
2017-Nov-18 12:29N 39°34' E 002°38'0 0.0
2017-Nov-18 11:59N 39°34' E 002°38'0 0.0
2017-Nov-18 11:29N 39°34' E 002°38'0 0.0
2017-Nov-18 11:00N 39°34' E 002°38'0 0.0
2017-Nov-18 10:30N 39°34' E 002°38'0 0.0
2017-Nov-18 10:00N 39°34' E 002°38'0 0.0
2017-Nov-18 09:30N 39°34' E 002°38'0 0.0
2017-Nov-18 09:00N 39°34' E 002°38'0 0.0
2017-Nov-18 08:30N 39°34' E 002°38'0 0.0
2017-Nov-18 08:00N 39°34' E 002°38'0 0.0
2017-Nov-18 07:30N 39°34' E 002°38'0 0.0
2017-Nov-18 07:00N 39°34' E 002°38'0 0.0
2017-Nov-18 06:30N 39°34' E 002°38'1 1.8
2017-Nov-18 06:00N 39°33' E 002°39'612.6
2017-Nov-18 05:30N 39°28' E 002°34'712.6
2017-Nov-18 04:59N 39°25' E 002°26'  
2017-Nov-15 19:57N 39°21' E 002°27'715.3
2017-Nov-15 19:30N 39°26' E 002°32'714.1
2017-Nov-15 19:00N 39°32' E 002°38'2 3.2
2017-Nov-15 18:28N 39°34' E 002°38'0 0.0
2017-Nov-15 17:58N 39°34' E 002°38'0 0.0
2017-Nov-15 17:28N 39°34' E 002°38'0 0.0
2017-Nov-15 16:58N 39°34' E 002°38'0 0.0
2017-Nov-15 16:28N 39°34' E 002°38'0 0.0
2017-Nov-15 15:58N 39°34' E 002°38'0 0.0
2017-Nov-15 15:31N 39°34' E 002°38'0 0.0
2017-Nov-15 15:00N 39°34' E 002°38'0 0.0
2017-Nov-15 14:30N 39°34' E 002°38'0 0.0
2017-Nov-15 14:01N 39°34' E 002°38'0 0.0
2017-Nov-15 13:30N 39°34' E 002°38'0 0.0
2017-Nov-15 13:00N 39°34' E 002°38'0 0.0
2017-Nov-15 12:30N 39°34' E 002°38'0 0.0
2017-Nov-15 12:00N 39°34' E 002°38'0 0.0
2017-Nov-15 11:30N 39°34' E 002°38'0 0.0
2017-Nov-15 11:01N 39°34' E 002°38'0 0.0
2017-Nov-15 10:30N 39°34' E 002°38'0 0.0
2017-Nov-15 10:00N 39°34' E 002°38'0 0.0
2017-Nov-15 09:31N 39°34' E 002°38'0 0.0
2017-Nov-15 09:00N 39°34' E 002°38'0 0.0
2017-Nov-15 08:30N 39°34' E 002°38'0 0.0
2017-Nov-15 08:01N 39°34' E 002°38'0 0.0
2017-Nov-15 07:31N 39°34' E 002°38'0 0.0
2017-Nov-15 07:00N 39°34' E 002°38'0 0.0
2017-Nov-15 06:31N 39°34' E 002°38'2 3.1
2017-Nov-15 06:00N 39°32' E 002°38'5 9.6
2017-Nov-15 05:30N 39°28' E 002°35'4 8.7
2017-Nov-15 05:00N 39°25' E 002°31'611.2
2017-Nov-15 04:30N 39°25' E 002°24'15 0.3
2017-Nov-13 01:58N 39°33' E 002°40'0 0.0
2017-Nov-13 01:28N 39°33' E 002°40'0 0.0
2017-Nov-13 00:58N 39°33' E 002°40'0 0.0
2017-Nov-13 00:28N 39°33' E 002°40'0 0.0
2017-Nov-12 23:58N 39°33' E 002°40'0 0.0
2017-Nov-12 23:22N 39°33' E 002°40'0 0.0
2017-Nov-12 22:58N 39°33' E 002°40'0 0.0
2017-Nov-12 22:28N 39°33' E 002°40'0 0.0
2017-Nov-12 21:55N 39°33' E 002°40'0 0.0
2017-Nov-12 21:25N 39°33' E 002°40'0 0.0
2017-Nov-12 20:58N 39°33' E 002°40'0 0.0
2017-Nov-12 20:28N 39°33' E 002°40'0 0.0
2017-Nov-12 19:58N 39°33' E 002°40'0 0.0
2017-Nov-12 19:28N 39°33' E 002°40'0 0.0
2017-Nov-12 18:58N 39°33' E 002°40'0 0.0
2017-Nov-12 18:28N 39°33' E 002°40'0 0.0
2017-Nov-12 17:58N 39°33' E 002°40'0 0.0
2017-Nov-12 17:28N 39°33' E 002°40'0 0.0
2017-Nov-12 16:58N 39°33' E 002°40'0 0.0
2017-Nov-12 16:28N 39°33' E 002°40'0 0.0
2017-Nov-12 15:58N 39°33' E 002°40'0 0.0
2017-Nov-12 15:28N 39°33' E 002°40'0 0.0
2017-Nov-12 14:58N 39°33' E 002°40'0 0.0
2017-Nov-12 14:29N 39°33' E 002°40'0 0.0
2017-Nov-12 13:58N 39°33' E 002°40'0 0.0
2017-Nov-12 13:28N 39°33' E 002°40'0 0.1
2017-Nov-12 12:58N 39°33' E 002°40'0 0.0
2017-Nov-12 12:28N 39°33' E 002°40'0 0.0
2017-Nov-12 11:58N 39°33' E 002°40'0 0.0
2017-Nov-12 11:28N 39°33' E 002°40'0 0.0
2017-Nov-12 10:58N 39°33' E 002°40'0 0.0
2017-Nov-12 10:28N 39°33' E 002°40'0 0.0
2017-Nov-12 09:58N 39°33' E 002°40'0 0.0
2017-Nov-12 09:28N 39°33' E 002°40'0 0.0
2017-Nov-12 08:58N 39°33' E 002°40'0 0.1
2017-Nov-12 08:28N 39°33' E 002°40'0 0.0
2017-Nov-12 07:58N 39°33' E 002°40'0 0.0
2017-Nov-12 07:28N 39°33' E 002°40'0 0.0
2017-Nov-12 06:58N 39°33' E 002°40'0 0.0
2017-Nov-12 06:28N 39°33' E 002°40'0 0.0
2017-Nov-12 05:58N 39°33' E 002°40'0 0.0
2017-Nov-12 05:28N 39°33' E 002°40'0 0.0
2017-Nov-12 04:58N 39°33' E 002°40'0 0.0
2017-Nov-12 04:28N 39°33' E 002°40'0 0.0
2017-Nov-12 03:58N 39°33' E 002°40'0 0.0
2017-Nov-12 03:28N 39°33' E 002°40'0 0.0
2017-Nov-12 02:58N 39°33' E 002°40'0 0.0
2017-Nov-12 02:28N 39°33' E 002°40'0 0.0
2017-Nov-12 01:58N 39°33' E 002°40'0 0.0
2017-Nov-12 01:28N 39°33' E 002°40'0 0.0
2017-Nov-12 00:58N 39°33' E 002°40'0 0.0
2017-Nov-12 00:28N 39°33' E 002°40'0 0.0
2017-Nov-11 23:58N 39°33' E 002°40'0 0.0
2017-Nov-11 23:28N 39°33' E 002°40'0 0.0
2017-Nov-11 22:55N 39°33' E 002°40'0 1.0
2017-Nov-11 22:30N 39°33' E 002°40'611.3
2017-Nov-11 22:00N 39°29' E 002°35'612.5
2017-Nov-11 21:30N 39°27' E 002°27'2 0.1
2017-Nov-10 20:03N 39°28' E 002°24'111.8
2017-Nov-10 19:59N 39°28' E 002°25'511.4
2017-Nov-10 19:30N 39°26' E 002°32'612.7
2017-Nov-10 19:00N 39°31' E 002°37'3 4.9
2017-Nov-10 18:29N 39°34' E 002°38'0 0.0
2017-Nov-10 17:59N 39°34' E 002°38'0 0.0
2017-Nov-10 17:29N 39°34' E 002°38'0 0.0
2017-Nov-10 16:59N 39°34' E 002°38'0 0.0
2017-Nov-10 16:29N 39°34' E 002°38'0 0.0
2017-Nov-10 15:59N 39°34' E 002°38'0 0.0
2017-Nov-10 15:29N 39°34' E 002°38'0 0.0
2017-Nov-10 14:59N 39°34' E 002°38'0 0.0
2017-Nov-10 14:29N 39°34' E 002°38'0 0.0
2017-Nov-10 13:59N 39°34' E 002°38'0 0.0
2017-Nov-10 13:29N 39°34' E 002°38'0 0.0
2017-Nov-10 12:59N 39°34' E 002°38'0 0.0
2017-Nov-10 12:29N 39°34' E 002°38'0 0.0
2017-Nov-10 11:59N 39°34' E 002°38'0 0.0
2017-Nov-10 11:29N 39°34' E 002°38'0 0.0
2017-Nov-10 10:59N 39°34' E 002°38'0 0.0
2017-Nov-10 10:23N 39°34' E 002°38'0 0.0
2017-Nov-10 09:59N 39°34' E 002°38'0 0.0
2017-Nov-10 09:29N 39°34' E 002°38'0 0.0
2017-Nov-10 08:59N 39°34' E 002°38'0 0.0
2017-Nov-10 08:29N 39°34' E 002°38'0 0.0
2017-Nov-10 07:59N 39°34' E 002°38'0 0.0
2017-Nov-10 07:29N 39°34' E 002°38'0 0.0
2017-Nov-10 07:00N 39°34' E 002°38'0 0.0
2017-Nov-10 06:31N 39°34' E 002°38'1 2.9
2017-Nov-10 06:00N 39°32' E 002°39'714.4
2017-Nov-10 05:30N 39°26' E 002°33'612.5
2017-Nov-10 05:00N 39°26' E 002°25'1 0.0
2017-Nov-08 20:23N 39°25' E 002°23'410.4
2017-Nov-08 20:00N 39°25' E 002°28'612.3
2017-Nov-08 19:30N 39°28' E 002°35'611.2
2017-Nov-08 19:00N 39°33' E 002°39'1 1.7
2017-Nov-08 18:28N 39°34' E 002°38'0 0.0
2017-Nov-08 17:58N 39°34' E 002°38'0 0.0
2017-Nov-08 17:28N 39°34' E 002°38'0 0.0
2017-Nov-08 16:58N 39°34' E 002°38'0 0.0
2017-Nov-08 16:28N 39°34' E 002°38'0 0.0
2017-Nov-08 15:55N 39°34' E 002°38'0 0.0
2017-Nov-08 15:25N 39°34' E 002°38'  

Dump ship's entire track history